createdAt,value
2019-04-03T08:22:04.799Z,6788.00
2019-04-03T08:23:05.955Z,7108.00
2019-04-03T08:24:05.996Z,7324.00
2019-04-03T08:25:04.689Z,7448.00
2019-04-03T08:26:04.905Z,7804.00
2019-04-03T08:27:07.763Z,7992.00
2019-04-03T08:28:04.637Z,8288.00
2019-04-03T08:29:04.593Z,8380.00
2019-04-03T08:30:07.469Z,8444.00
2019-04-03T08:31:04.602Z,8248.00
2019-04-03T08:32:04.851Z,7776.00
2019-04-03T08:33:15.150Z,7420.00
2019-04-03T08:34:14.608Z,7136.00
2019-04-03T08:35:04.627Z,6808.00
2019-04-03T08:36:06.628Z,6504.00
2019-04-03T08:37:04.421Z,6224.00
2019-04-03T08:38:04.400Z,6136.00
2019-04-03T08:39:04.464Z,6080.00
2019-04-03T08:40:04.369Z,5880.00
2019-04-03T08:41:04.455Z,5696.00
2019-04-03T09:03:08.313Z,6808.00
2019-04-03T09:04:08.091Z,7016.00
2019-04-03T09:05:08.051Z,7212.00
2019-04-03T09:06:08.029Z,7324.00
2019-04-03T09:07:08.011Z,7352.00
2019-04-03T09:08:07.982Z,7192.00
2019-04-03T09:09:08.271Z,7176.00
2019-04-03T09:10:07.973Z,7272.00
2019-04-03T09:11:08.202Z,7416.00
2019-04-03T09:12:08.054Z,7716.00
2019-04-03T09:13:16.983Z,8040.00
2019-04-03T09:14:07.955Z,8300.00
2019-04-03T09:15:07.838Z,8548.00
2019-04-03T09:16:10.153Z,8764.00
2019-04-03T09:17:07.794Z,8808.00
2019-04-03T09:25:08.761Z,8556.00
2019-04-03T09:26:08.724Z,8668.00
2019-04-03T09:27:09.856Z,8804.00
2019-04-03T09:28:08.967Z,8856.00
2019-04-03T09:29:08.673Z,8904.00
2019-04-03T09:30:08.637Z,9040.00
2019-04-03T09:31:08.864Z,9300.00
2019-04-03T09:32:08.597Z,9728.00
2019-04-03T09:33:08.579Z,10184.00
2019-04-03T09:34:08.786Z,10604.00
2019-04-03T09:35:08.538Z,11056.00
2019-04-03T09:36:08.515Z,11556.00
2019-04-03T09:37:08.810Z,11972.00
2019-04-03T09:38:09.821Z,12280.00
2019-04-03T09:39:08.476Z,12492.00
2019-04-03T09:40:08.440Z,12580.00
2019-04-03T09:41:08.418Z,12572.00
2019-04-03T09:42:08.403Z,12400.00
2019-04-03T09:43:08.380Z,12216.00
2019-04-03T09:44:08.373Z,12080.00
2019-04-03T09:45:08.377Z,11736.00
2019-04-03T09:46:08.326Z,11464.00
2019-04-03T09:47:08.381Z,11636.00
2019-04-03T09:48:11.215Z,11844.00
2019-04-03T09:49:08.423Z,11812.00
2019-04-03T09:53:30.501Z,12048.00
2019-04-03T09:54:30.424Z,12132.00
2019-04-03T09:55:35.420Z,12244.00
2019-04-03T09:56:30.354Z,12168.00
2019-04-03T09:57:31.321Z,12044.00
2019-04-03T09:58:30.315Z,11648.00
2019-04-03T09:59:30.507Z,11168.00
2019-04-03T10:00:30.274Z,11196.00
2019-04-03T10:01:30.257Z,10844.00
2019-04-03T10:02:30.237Z,10252.00
2019-04-03T10:07:15.932Z,9228.00
2019-04-03T10:08:15.893Z,9156.00
2019-04-03T10:09:15.875Z,9240.00
2019-04-03T10:10:16.907Z,8984.00
2019-04-03T10:11:17.710Z,8536.00
2019-04-03T10:17:03.872Z,9408.00
2019-04-03T10:18:02.222Z,10192.00
2019-04-03T10:19:02.197Z,11296.00
2019-04-03T10:20:02.178Z,12208.00
2019-04-03T10:21:02.210Z,12584.00
2019-04-03T10:22:02.135Z,12468.00
2019-04-03T10:23:02.119Z,12356.00
2019-04-03T10:24:02.157Z,12304.00
2019-04-03T10:25:11.477Z,12276.00
2019-04-03T10:26:02.288Z,12052.00
2019-04-03T10:27:02.056Z,11788.00
2019-04-03T10:28:02.249Z,11436.00
2019-04-03T10:29:02.010Z,11308.00
2019-04-03T10:30:01.983Z,11180.00
2019-04-03T10:31:01.964Z,11392.00
2019-04-03T10:32:01.965Z,11748.00
2019-04-03T10:33:02.016Z,11560.00
2019-04-03T10:34:03.144Z,11252.00
2019-04-03T10:35:02.329Z,11300.00
2019-04-03T10:36:02.216Z,11696.00
2019-04-03T10:37:01.867Z,11832.00
2019-04-03T10:38:01.992Z,11520.00
2019-04-03T10:39:01.818Z,11592.00
2019-04-03T10:40:01.796Z,11692.00
2019-04-03T10:41:01.868Z,11872.00
2019-04-03T10:42:01.778Z,12076.00
2019-04-03T10:43:04.705Z,12256.00
2019-04-03T10:46:08.028Z,12436.00
2019-04-03T10:47:08.024Z,12388.00
2019-04-03T10:48:07.983Z,12308.00
2019-04-03T10:49:07.966Z,12144.00
2019-04-03T10:50:08.215Z,12220.00
2019-04-03T10:51:09.259Z,12356.00
2019-04-03T10:52:07.906Z,12700.00
2019-04-03T10:53:07.906Z,13300.00
2019-04-03T10:54:07.883Z,13428.00
2019-04-03T10:55:08.033Z,13792.00
2019-04-03T10:56:15.705Z,14760.00
2019-04-03T10:57:07.814Z,16136.00
2019-04-03T10:58:08.535Z,17504.00
2019-04-03T10:59:11.561Z,18688.00
2019-04-03T11:00:07.758Z,19168.00
2019-04-03T11:01:07.741Z,18496.00
2019-04-03T11:02:07.722Z,17952.00
2019-04-03T11:03:07.723Z,18336.00
2019-04-03T11:04:07.715Z,19488.00
2019-04-03T11:05:07.672Z,19712.00
2019-04-03T11:06:07.653Z,19136.00
2019-04-03T11:07:07.902Z,18272.00
2019-04-03T11:08:07.626Z,17984.00
2019-04-03T11:09:07.674Z,18432.00
2019-04-03T11:10:07.596Z,18400.00
2019-04-03T11:11:07.558Z,17760.00
2019-04-03T11:12:09.714Z,16832.00
2019-04-03T11:13:07.546Z,16028.00
2019-04-03T11:14:08.103Z,15484.00
2019-04-03T11:15:10.463Z,15228.00
2019-04-03T11:16:07.481Z,13948.00
2019-04-03T11:17:07.455Z,11840.00
2019-04-03T11:18:07.440Z,10348.00
2019-04-03T11:19:07.519Z,9868.00
2019-04-03T11:20:09.801Z,10292.00
2019-04-03T11:21:07.387Z,10768.00
2019-04-03T11:22:07.375Z,11208.00
2019-04-03T11:23:08.386Z,11428.00
2019-04-03T11:24:07.458Z,11252.00
2019-04-03T11:25:07.469Z,11188.00
2019-04-03T11:26:07.307Z,11004.00
2019-04-03T11:27:07.284Z,10512.00
2019-04-03T11:33:12.862Z,9880.00
2019-04-03T11:34:10.559Z,9956.00
2019-04-03T11:35:10.520Z,9856.00
2019-04-03T11:36:10.210Z,9704.00
2019-04-03T11:37:10.582Z,9260.00
2019-04-03T11:38:14.208Z,9532.00
2019-04-03T11:39:14.860Z,10612.00
2019-04-03T11:40:10.478Z,12184.00
2019-04-03T11:41:14.438Z,12516.00
2019-04-03T11:42:13.815Z,11824.00
2019-04-03T11:50:01.846Z,8392.00
2019-04-03T11:51:02.126Z,8396.00
2019-04-03T11:52:02.006Z,8404.00
2019-04-03T11:53:04.848Z,9012.00
2019-04-03T11:54:01.672Z,9852.00
2019-04-03T11:55:01.668Z,10764.00
2019-04-03T11:56:01.631Z,11404.00
2019-04-03T11:57:01.617Z,11764.00
2019-04-03T11:58:01.596Z,11820.00
2019-04-03T12:04:06.553Z,7696.00
2019-04-03T12:05:06.664Z,7196.00
2019-04-03T12:06:06.764Z,6980.00
2019-04-03T12:07:06.531Z,7352.00
2019-04-03T12:12:38.467Z,9628.00
2019-04-03T12:13:38.536Z,9560.00
2019-04-03T12:14:38.229Z,9524.00
2019-04-03T12:15:38.225Z,9380.00
2019-04-03T12:16:38.188Z,9160.00
2019-04-03T12:17:38.855Z,9120.00
2019-04-03T12:23:06.105Z,8568.00
2019-04-03T12:24:06.015Z,8768.00
2019-04-03T12:25:06.055Z,9440.00
2019-04-03T12:26:05.970Z,9624.00
2019-04-03T12:27:05.899Z,8712.00
2019-04-03T12:39:08.103Z,7340.00
2019-04-03T12:40:08.376Z,8020.00
2019-04-03T12:41:08.068Z,8820.00
2019-04-03T12:42:08.732Z,9576.00
2019-04-03T12:43:08.004Z,9944.00
2019-04-03T12:44:07.991Z,10276.00
2019-04-03T12:45:07.964Z,10988.00
2019-04-03T12:46:08.360Z,11784.00
2019-04-03T12:47:12.813Z,12360.00
2019-04-03T12:48:07.909Z,12872.00
2019-04-03T12:49:08.063Z,13544.00
2019-04-03T12:50:07.883Z,14084.00
2019-04-03T12:51:07.870Z,14404.00
2019-04-03T12:52:07.830Z,14344.00
2019-04-03T12:53:08.180Z,14252.00
2019-04-03T12:54:07.797Z,14288.00
2019-04-03T12:55:07.781Z,14364.00
2019-04-03T12:56:07.768Z,14436.00
2019-04-03T12:57:07.791Z,14444.00
2019-04-03T12:58:07.753Z,14156.00
2019-04-03T12:59:09.386Z,13532.00
2019-04-03T13:00:10.762Z,13296.00
2019-04-03T13:01:07.668Z,13912.00
2019-04-03T13:02:07.663Z,15468.00
2019-04-03T13:03:08.014Z,15664.00
2019-04-03T13:04:07.614Z,14732.00
2019-04-03T13:05:07.889Z,13440.00
2019-04-03T13:06:09.739Z,12812.00
2019-04-03T13:07:07.557Z,13228.00
2019-04-03T13:08:07.751Z,14200.00
2019-04-03T13:09:07.522Z,13824.00
2019-04-03T13:10:08.020Z,13384.00
2019-04-03T13:11:07.498Z,13260.00
2019-04-03T13:12:07.528Z,13656.00
2019-04-03T13:13:07.992Z,14236.00
2019-04-03T13:14:07.433Z,14624.00
2019-04-03T13:15:07.418Z,15148.00
2019-04-03T13:16:09.200Z,14716.00
2019-04-03T13:17:07.421Z,14312.00
2019-04-03T13:18:07.750Z,14188.00
2019-04-03T13:19:07.345Z,13988.00
2019-04-03T13:20:07.330Z,13804.00
2019-04-03T13:21:09.017Z,13932.00
2019-04-03T13:22:07.292Z,14084.00
2019-04-03T13:23:07.309Z,14072.00
2019-04-03T13:24:07.261Z,14064.00
2019-04-03T13:25:07.537Z,13760.00
2019-04-03T13:26:07.413Z,13656.00
2019-04-03T13:27:07.205Z,13380.00
2019-04-03T13:28:07.230Z,12952.00
2019-04-03T13:29:08.929Z,12472.00
2019-04-03T13:33:31.859Z,9952.00
2019-04-03T13:34:32.616Z,9684.00
2019-04-03T13:35:31.950Z,9636.00
2019-04-03T13:36:32.479Z,9524.00
2019-04-03T13:43:39.797Z,7936.00
2019-04-03T13:44:39.762Z,7976.00
2019-04-03T13:45:40.030Z,7844.00
2019-04-03T13:46:39.861Z,7416.00
2019-04-03T14:21:16.188Z,6520.00
2019-04-03T14:22:15.826Z,7400.00
2019-04-03T14:23:15.799Z,8168.00
2019-04-03T14:24:15.789Z,8824.00
2019-04-03T14:25:21.335Z,9108.00
2019-04-03T14:26:15.974Z,8904.00
2019-04-03T14:27:21.982Z,8616.00
2019-04-03T14:28:15.700Z,8424.00
2019-04-03T14:29:15.828Z,8180.00
2019-04-03T14:30:15.676Z,7860.00
2019-04-03T14:31:17.837Z,7480.00
2019-04-03T14:32:15.618Z,7172.00
